Time;durP1;ratioP1;P1;durP2;ratioP2;P2;SDS_P1;SDS_P2;PMS_P1;PMS_P2;Temp;Humidity;BMP_temperature;BMP_pressure;BME280_temperature;BME280_humidity;BME280_pressure;Samples;Min_cycle;Max_cycle;Signal;HPM_P1;HPM_P2
2021/05/02 00:01:37;;;;;;;19.38;10.70;;;;;;;18.69;61.19;101860.34;4913979;29;20035;-67
2021/05/02 00:04:04;;;;;;;16.45;10.18;;;;;;;18.68;60.97;101866.66;4931093;29;20040;-67
2021/05/02 00:06:30;;;;;;;18.63;10.60;;;;;;;18.66;61.33;101864.19;4931268;29;20072;-67
2021/05/02 00:08:56;;;;;;;16.90;9.95;;;;;;;18.66;60.94;101860.69;4931055;29;20066;-67
2021/05/02 00:11:22;;;;;;;17.33;10.40;;;;;;;18.65;60.79;101862.50;4930583;29;20510;-66
2021/05/02 00:13:47;;;;;;;15.13;9.77;;;;;;;18.64;61.14;101854.72;4929155;29;20051;-67
2021/05/02 00:16:13;;;;;;;16.70;10.18;;;;;;;18.64;60.69;101857.38;4930352;29;20044;-67
2021/05/02 00:18:39;;;;;;;19.98;9.70;;;;;;;18.63;60.30;101855.69;4930063;29;20043;-67
2021/05/02 00:21:09;;;;;;;16.50;10.23;;;;;;;18.60;60.62;101853.31;4930418;29;20111;-67
2021/05/02 00:23:37;;;;;;;15.32;8.88;;;;;;;18.61;60.11;101854.97;4930745;29;20035;-67
2021/05/02 00:26:04;;;;;;;16.02;9.13;;;;;;;18.60;60.07;101845.34;4930719;29;20095;-66
2021/05/02 00:28:31;;;;;;;14.68;9.15;;;;;;;18.59;60.10;101846.34;4931317;29;20391;-67
2021/05/02 00:30:58;;;;;;;13.15;8.23;;;;;;;18.59;60.13;101846.34;4930451;29;20040;-67
2021/05/02 00:33:24;;;;;;;14.68;8.90;;;;;;;18.58;59.72;101850.00;4931295;29;20036;-66
2021/05/02 00:35:51;;;;;;;13.95;8.68;;;;;;;18.58;59.73;101839.38;4930941;29;20091;-67
2021/05/02 00:38:16;;;;;;;13.40;7.70;;;;;;;18.56;59.62;101844.84;4931011;29;20027;-67
2021/05/02 00:40:43;;;;;;;15.38;8.40;;;;;;;18.55;59.74;101840.53;4931923;29;20035;-66
2021/05/02 00:43:13;;;;;;;13.50;8.68;;;;;;;18.53;59.45;101846.03;4930771;29;20031;-66
2021/05/02 00:45:57;;;;;;;13.32;7.88;;;;;;;18.50;59.60;101841.03;4930267;29;20062;-68
2021/05/02 00:48:41;;;;;;;11.57;7.55;;;;;;;18.48;59.28;101837.72;4929417;29;20040;-67
2021/05/02 00:51:10;;;;;;;;;;;;;;;18.42;59.44;101842.84;4929713;29;20439;-67
2021/05/02 00:53:51;;;;;;;10.88;7.18;;;;;;;18.47;59.59;101838.72;4931536;29;20029;-67
2021/05/02 00:56:20;;;;;;;11.77;7.20;;;;;;;18.49;59.60;101834.06;4923335;29;20031;-66
2021/05/02 00:58:54;;;;;;;11.18;7.25;;;;;;;18.49;59.34;101835.91;4930268;29;20543;-66
2021/05/02 01:01:22;;;;;;;11.48;7.53;;;;;;;18.48;59.31;101832.41;4930476;29;20032;-67
2021/05/02 01:03:50;;;;;;;10.45;6.65;;;;;;;18.48;59.19;101828.91;4929229;29;20036;-66
2021/05/02 01:06:22;;;;;;;9.43;6.43;;;;;;;18.47;58.90;101825.44;4931472;29;20428;-66
2021/05/02 01:08:50;;;;;;;10.68;6.90;;;;;;;18.48;59.05;101823.59;4929974;29;20036;-67
2021/05/02 01:11:16;;;;;;;9.43;6.40;;;;;;;18.48;59.00;101827.09;4929837;29;20603;-66
2021/05/02 01:13:50;;;;;;;10.25;6.45;;;;;;;18.46;58.70;101830.88;4930869;29;20127;-69
2021/05/02 01:16:17;;;;;;;11.25;6.63;;;;;;;18.44;58.63;101825.75;4918999;29;20036;-66
2021/05/02 01:18:43;;;;;;;11.73;6.97;;;;;;;18.45;58.93;101826.56;4930422;29;20063;-67
2021/05/02 01:21:14;;;;;;;8.75;5.88;;;;;;;18.44;58.81;101831.06;4933183;29;20039;-67
2021/05/02 01:23:40;;;;;;;8.85;6.45;;;;;;;18.44;58.82;101832.88;4934701;29;20031;-67
2021/05/02 01:26:06;;;;;;;10.65;6.30;;;;;;;18.43;58.56;101834.72;4932553;29;20039;-67
2021/05/02 01:28:36;;;;;;;10.20;5.82;;;;;;;18.43;59.00;101823.25;4935198;29;20098;-67
2021/05/02 01:31:01;;;;;;;11.15;6.30;;;;;;;18.43;58.73;101826.72;4933476;29;20035;-66
2021/05/02 01:33:27;;;;;;;9.75;6.10;;;;;;;18.42;59.05;101827.72;4933016;29;20403;-67
2021/05/02 01:35:55;;;;;;;10.98;5.88;;;;;;;18.41;58.52;101828.72;4933626;29;20075;-67
2021/05/02 01:38:22;;;;;;;10.45;5.78;;;;;;;18.41;58.94;101820.75;4932871;29;20753;-67
2021/05/02 01:40:48;;;;;;;9.18;5.68;;;;;;;18.40;58.99;101821.75;4932862;29;20735;-67
2021/05/02 01:43:14;;;;;;;9.45;6.22;;;;;;;18.40;58.63;101815.63;4932516;29;20043;-67
2021/05/02 01:45:39;;;;;;;10.05;5.30;;;;;;;18.40;58.56;101824.41;4933639;29;20112;-67
2021/05/02 01:48:06;;;;;;;7.82;5.32;;;;;;;18.40;58.43;101823.59;4933139;29;20024;-66
2021/05/02 01:50:37;;;;;;;9.80;5.85;;;;;;;18.39;58.78;101819.25;4934258;29;20503;-67
2021/05/02 01:53:03;;;;;;;8.27;5.05;;;;;;;18.40;58.65;101823.59;4934157;29;20035;-67
2021/05/02 01:55:29;;;;;;;10.52;5.32;;;;;;;18.39;58.44;101821.91;4934310;29;20541;-67
2021/05/02 01:57:55;;;;;;;9.93;5.63;;;;;;;18.39;58.25;101827.22;4932834;29;20053;-67
2021/05/02 02:00:20;;;;;;;8.43;5.40;;;;;;;18.38;58.55;101825.56;4928737;29;20036;-66
2021/05/02 02:02:47;;;;;;;9.15;4.95;;;;;;;18.39;58.21;101829.88;4930188;29;20064;-67
2021/05/02 02:05:14;;;;;;;10.52;5.55;;;;;;;18.37;58.27;101814.13;4932403;29;20114;-67
2021/05/02 02:07:40;;;;;;;7.45;4.75;;;;;;;18.37;58.51;101821.25;4933869;29;20479;-67
2021/05/02 02:10:06;;;;;;;7.47;4.85;;;;;;;18.37;58.39;101824.75;4922345;29;20179;-67
2021/05/02 02:12:31;;;;;;;7.90;4.80;;;;;;;18.37;58.34;101822.09;4928508;29;20036;-67
2021/05/02 02:14:57;;;;;;;7.15;4.78;;;;;;;18.36;58.31;101822.25;4923461;29;20341;-67
2021/05/02 02:17:23;;;;;;;8.95;4.63;;;;;;;18.36;58.27;101820.44;4930290;29;20578;-66
2021/05/02 02:19:49;;;;;;;7.53;5.00;;;;;;;18.35;57.91;101818.78;4933709;29;20395;-67
2021/05/02 02:22:18;;;;;;;6.82;4.30;;;;;;;18.34;58.07;101822.44;4933107;29;20031;-67
2021/05/02 02:24:52;;;;;;;6.85;4.43;;;;;;;18.32;57.90;101818.28;4933567;29;20459;-67
2021/05/02 02:27:19;;;;;;;6.68;4.38;;;;;;;18.33;58.09;101815.44;4928229;29;20059;-68
2021/05/02 02:29:49;;;;;;;6.20;4.30;;;;;;;18.33;57.80;101817.28;4927002;29;20032;-67
2021/05/02 02:32:17;;;;;;;6.75;4.65;;;;;;;18.34;57.92;101821.59;4926337;29;20119;-66
2021/05/02 02:34:47;;;;;;;8.07;4.70;;;;;;;18.32;58.09;101819.09;4927678;29;20036;-67
2021/05/02 02:37:18;;;;;;;6.45;4.18;;;;;;;18.32;57.96;101819.09;4925622;29;20047;-66
2021/05/02 02:39:52;;;;;;;7.50;4.70;;;;;;;18.32;58.00;101824.41;4930428;29;20102;-67
2021/05/02 02:42:19;;;;;;;6.60;4.18;;;;;;;18.33;57.71;101825.25;4931830;29;20451;-67
2021/05/02 02:44:51;;;;;;;6.57;4.38;;;;;;;18.32;57.54;101820.94;4931644;29;20043;-67
2021/05/02 02:47:19;;;;;;;6.18;3.90;;;;;;;18.32;57.87;101820.94;4932613;29;20546;-67
2021/05/02 02:50:10;;;;;;;5.13;3.47;;;;;;;18.26;57.62;101822.41;4932956;29;20118;-67
2021/05/02 02:53:00;;;;;;;6.75;4.10;;;;;;;18.26;57.75;101825.06;4924636;29;20090;-66
2021/05/02 02:55:26;;;;;;;6.68;4.13;;;;;;;18.29;57.64;101821.22;4933260;29;20033;-67
2021/05/02 02:57:52;;;;;;;5.70;3.78;;;;;;;18.30;57.58;101823.72;4933334;29;20554;-67
2021/05/02 03:00:23;;;;;;;5.65;3.78;;;;;;;18.28;57.42;101828.38;4931908;29;20040;-67
2021/05/02 03:03:10;;;;;;;5.93;3.83;;;;;;;18.29;57.65;101829.19;4932141;29;20063;-66
2021/05/02 03:05:37;;;;;;;5.70;3.58;;;;;;;18.27;57.45;101824.88;4918883;29;20237;-67
2021/05/02 03:08:05;;;;;;;6.63;3.80;;;;;;;18.27;57.59;101829.38;4931938;29;20048;-66
2021/05/02 03:10:31;;;;;;;6.13;3.83;;;;;;;18.27;57.40;101830.19;4932070;29;20151;-66
2021/05/02 03:12:59;;;;;;;5.30;3.22;;;;;;;18.26;57.38;101825.06;4917833;29;20063;-66
2021/05/02 03:15:25;;;;;;;5.72;3.50;;;;;;;18.26;57.64;101825.88;4931113;29;20036;-67
2021/05/02 03:18:14;;;;;;;6.30;3.75;;;;;;;18.23;57.50;101828.88;4932723;29;20031;-67
2021/05/02 03:20:43;;;;;;;5.07;3.05;;;;;;;18.26;57.54;101828.53;4931178;29;20032;-66
2021/05/02 03:23:28;;;;;;;5.22;3.15;;;;;;;18.25;57.56;101831.34;4932114;29;20091;-67
2021/05/02 03:25:59;;;;;;;5.35;3.35;;;;;;;18.25;57.60;101829.53;4925691;29;20052;-66
2021/05/02 03:28:31;;;;;;;5.45;3.20;;;;;;;18.25;57.58;101834.00;4932144;29;20027;-67
2021/05/02 03:31:00;;;;;;;5.32;3.50;;;;;;;18.26;57.48;101830.38;4932547;29;20715;-67
2021/05/02 03:33:32;;;;;;;6.32;3.45;;;;;;;18.24;57.23;101833.19;4931564;29;20027;-67
2021/05/02 03:36:00;;;;;;;6.72;3.63;;;;;;;18.25;57.35;101834.00;4931915;29;20066;-67
2021/05/02 03:38:51;;;;;;;5.90;3.50;;;;;;;18.21;57.32;101830.03;4932034;29;20031;-67
2021/05/02 03:41:18;;;;;;;5.22;3.17;;;;;;;18.23;57.33;101833.34;4930568;29;20579;-67
2021/05/02 03:43:46;;;;;;;6.45;3.55;;;;;;;18.23;57.26;101836.00;4932178;29;20058;-66
2021/05/02 03:46:24;;;;;;;5.20;2.95;;;;;;;18.22;57.14;101835.19;4932146;29;20039;-67
2021/05/02 03:48:58;;;;;;;4.97;2.88;;;;;;;18.21;57.47;101832.69;4939641;28;20487;-67
2021/05/02 03:51:25;;;;;;;5.97;3.20;;;;;;;18.22;57.34;101840.50;4929591;29;20044;-67
2021/05/02 03:53:51;;;;;;;5.35;3.22;;;;;;;18.21;57.59;101830.84;4930876;29;20131;-67
2021/05/02 03:56:38;;;;;;;3.83;3.05;;;;;;;18.18;57.42;101836.50;4931699;29;20123;-67
2021/05/02 03:59:08;;;;;;;5.00;2.90;;;;;;;18.20;57.24;101836.34;4929502;29;20739;-67
2021/05/02 04:01:33;;;;;;;4.50;2.67;;;;;;;18.20;57.19;101831.03;4931874;29;20044;-67
2021/05/02 04:03:59;;;;;;;5.05;3.15;;;;;;;18.20;57.23;101842.47;4932205;29;20376;-67
2021/05/02 04:06:28;;;;;;;4.20;2.80;;;;;;;18.20;57.47;101841.66;4930605;29;20454;-67
2021/05/02 04:08:53;;;;;;;4.35;2.75;;;;;;;18.19;57.52;101840.81;4910796;29;20040;-67
2021/05/02 04:11:19;;;;;;;4.88;2.90;;;;;;;18.19;57.45;101838.16;4931163;29;20421;-67
2021/05/02 04:13:45;;;;;;;6.53;3.10;;;;;;;18.19;57.52;101840.00;4931709;29;20072;-66
2021/05/02 04:16:17;;;;;;;4.05;2.70;;;;;;;18.17;57.38;101836.66;4929666;29;20566;-68
2021/05/02 04:18:43;;;;;;;5.13;2.45;;;;;;;18.18;57.19;101838.31;4929692;29;20040;-68
2021/05/02 04:21:10;;;;;;;4.75;2.70;;;;;;;18.18;57.28;101833.00;4931968;29;20042;-67
2021/05/02 04:23:35;;;;;;;4.55;2.75;;;;;;;18.17;57.42;101837.50;4929437;29;20035;-67
2021/05/02 04:26:01;;;;;;;4.10;2.35;;;;;;;18.17;57.07;101842.81;4928906;29;20063;-67
2021/05/02 04:28:27;;;;;;;5.38;2.88;;;;;;;18.17;57.26;101839.31;4929982;29;20075;-67
2021/05/02 04:30:53;;;;;;;4.07;2.58;;;;;;;18.17;57.30;101842.81;4930574;29;20428;-67
2021/05/02 04:33:18;;;;;;;4.00;2.60;;;;;;;18.16;57.20;101837.66;4930077;29;20162;-67
2021/05/02 04:35:43;;;;;;;5.55;2.65;;;;;;;18.16;56.91;101840.31;4928928;29;20035;-66
2021/05/02 04:38:09;;;;;;;3.65;2.55;;;;;;;18.16;56.97;101846.47;4929377;29;20028;-67
2021/05/02 04:40:34;;;;;;;4.45;2.65;;;;;;;18.16;57.04;101850.94;4930904;29;20086;-67
2021/05/02 04:43:00;;;;;;;4.60;2.58;;;;;;;18.14;57.05;101851.06;4929812;29;20055;-67
2021/05/02 04:45:25;;;;;;;3.88;2.45;;;;;;;18.15;57.08;101855.41;4931074;29;20407;-67
2021/05/02 04:47:53;;;;;;;4.75;2.65;;;;;;;18.15;57.07;101865.22;4927559;29;20028;-67
2021/05/02 04:50:19;;;;;;;4.00;2.60;;;;;;;18.17;57.12;101860.56;4930222;29;20035;-67
2021/05/02 04:52:44;;;;;;;4.13;2.50;;;;;;;18.15;57.03;101860.72;4930481;29;20035;-67
2021/05/02 04:55:10;;;;;;;3.63;2.30;;;;;;;18.14;56.79;101860.88;4931375;29;20031;-67
2021/05/02 04:57:35;;;;;;;4.97;2.85;;;;;;;18.14;56.91;101864.34;4929648;29;20495;-67
2021/05/02 05:00:01;;;;;;;4.22;2.38;;;;;;;18.14;56.77;101866.19;4930099;29;20042;-67
2021/05/02 05:02:28;;;;;;;4.25;2.58;;;;;;;18.14;56.85;101861.69;4914814;29;20405;-67
2021/05/02 05:04:54;;;;;;;3.50;2.40;;;;;;;18.14;56.82;101858.22;4930813;29;20043;-67
2021/05/02 05:07:19;;;;;;;3.55;2.17;;;;;;;18.14;56.56;101863.53;4913922;29;20052;-67
2021/05/02 05:09:45;;;;;;;3.20;2.10;;;;;;;18.13;56.97;101868.00;4930607;29;20043;-67
2021/05/02 05:12:10;;;;;;;3.63;2.20;;;;;;;18.12;56.59;101862.84;4927878;29;20464;-67
2021/05/02 05:14:35;;;;;;;3.58;2.15;;;;;;;18.12;56.79;101870.81;4931348;29;20039;-67
2021/05/02 05:17:01;;;;;;;3.95;2.30;;;;;;;18.13;56.89;101875.97;4927173;29;20456;-67
2021/05/02 05:19:26;;;;;;;3.50;2.08;;;;;;;18.13;56.43;101875.13;4914158;29;20059;-67
2021/05/02 05:21:52;;;;;;;3.97;2.22;;;;;;;18.10;56.59;101873.63;4929835;29;20044;-67
2021/05/02 05:24:17;;;;;;;3.47;2.00;;;;;;;18.11;56.49;101875.31;4930549;29;20500;-67
2021/05/02 05:26:43;;;;;;;3.72;2.20;;;;;;;18.10;56.37;101878.94;4930537;29;20651;-67
2021/05/02 05:29:08;;;;;;;3.10;2.05;;;;;;;18.11;56.36;101885.09;4930112;29;20039;-66
2021/05/02 05:31:33;;;;;;;3.65;2.33;;;;;;;18.10;56.51;101892.22;4929953;29;20044;-67
2021/05/02 05:33:59;;;;;;;3.72;2.22;;;;;;;18.09;56.43;101887.09;4929221;29;20181;-67
2021/05/02 05:36:24;;;;;;;3.72;2.25;;;;;;;18.08;56.51;101888.06;4930737;29;20040;-67
2021/05/02 05:38:50;;;;;;;3.83;2.10;;;;;;;18.07;56.48;101889.06;4909603;29;20032;-69
2021/05/02 05:41:15;;;;;;;3.42;2.00;;;;;;;18.08;56.42;101896.03;4920982;29;20044;-67
2021/05/02 05:43:41;;;;;;;2.92;2.05;;;;;;;18.08;56.56;101893.38;4929063;29;20036;-67
2021/05/02 05:46:06;;;;;;;2.40;1.80;;;;;;;18.08;56.54;101890.72;4928697;29;20066;-67
2021/05/02 05:48:32;;;;;;;3.67;2.30;;;;;;;18.08;56.17;101890.72;4928313;29;20031;-67
2021/05/02 05:50:58;;;;;;;2.85;1.75;;;;;;;18.08;56.28;101896.88;4929098;29;20603;-67
2021/05/02 05:53:24;;;;;;;3.03;1.80;;;;;;;18.07;56.53;101892.56;4930072;29;20036;-67
2021/05/02 05:55:49;;;;;;;2.88;2.17;;;;;;;18.08;56.43;101898.69;4910448;29;20055;-67
2021/05/02 05:58:15;;;;;;;2.15;1.63;;;;;;;18.07;56.33;101899.69;4928853;29;20040;-67
2021/05/02 06:00:40;;;;;;;3.55;2.00;;;;;;;18.07;56.08;101899.69;4913542;29;20439;-67
2021/05/02 06:03:06;;;;;;;3.13;1.95;;;;;;;18.07;56.26;101897.88;4929071;29;20086;-67
2021/05/02 06:05:31;;;;;;;2.45;1.70;;;;;;;18.08;56.22;101901.34;4932629;29;20032;-67
2021/05/02 06:07:56;;;;;;;2.97;1.85;;;;;;;18.08;56.23;101906.66;4932585;29;20438;-67
2021/05/02 06:10:22;;;;;;;2.80;2.10;;;;;;;18.08;56.34;101901.34;4934096;29;20095;-67
2021/05/02 06:12:47;;;;;;;2.95;1.92;;;;;;;18.08;56.13;101906.66;4933549;29;20471;-67
2021/05/02 06:15:13;;;;;;;2.85;1.80;;;;;;;18.08;56.38;101911.97;4933244;29;20040;-67
2021/05/02 06:17:40;;;;;;;3.40;1.90;;;;;;;18.07;56.43;101905.84;4932973;29;20091;-69
2021/05/02 06:20:08;;;;;;;2.38;1.73;;;;;;;18.07;56.09;101900.53;4933501;29;20048;-67
2021/05/02 06:22:33;;;;;;;3.17;1.92;;;;;;;18.07;56.29;101905.00;4933272;29;20095;-67
2021/05/02 06:24:59;;;;;;;3.63;2.10;;;;;;;18.07;56.32;101897.03;4931425;29;20476;-67
2021/05/02 06:27:24;;;;;;;3.67;2.00;;;;;;;18.07;56.40;101900.53;4933925;29;20097;-67
2021/05/02 06:29:50;;;;;;;2.63;1.65;;;;;;;18.07;56.34;101905.00;4917972;29;20036;-69
2021/05/02 06:32:15;;;;;;;2.42;1.73;;;;;;;18.07;56.09;101905.84;4931591;29;20032;-67
2021/05/02 06:34:41;;;;;;;3.13;1.60;;;;;;;18.07;56.37;101902.34;4933233;29;20036;-67
2021/05/02 06:37:06;;;;;;;2.67;1.85;;;;;;;18.06;56.22;101909.47;4933254;29;20396;-67
2021/05/02 06:39:32;;;;;;;2.38;1.65;;;;;;;18.05;56.10;101910.47;4933376;29;20040;-67
2021/05/02 06:41:57;;;;;;;2.83;1.88;;;;;;;18.05;55.87;101907.81;4932991;29;20038;-68
2021/05/02 06:44:23;;;;;;;1.90;1.48;;;;;;;18.05;56.11;101902.50;4933831;29;20103;-67
2021/05/02 06:46:48;;;;;;;2.72;1.60;;;;;;;18.05;55.78;101904.34;4930401;29;20055;-67
2021/05/02 06:49:14;;;;;;;2.35;1.75;;;;;;;18.05;55.89;101913.13;4924326;29;20051;-67
2021/05/02 06:51:39;;;;;;;3.13;1.98;;;;;;;18.05;55.99;101912.31;4931804;29;20036;-67
2021/05/02 06:54:06;;;;;;;3.30;1.80;;;;;;;18.04;55.90;101916.78;4933519;29;20043;-68
2021/05/02 06:56:32;;;;;;;3.03;1.77;;;;;;;18.05;56.04;101918.44;4930730;29;20040;-68
2021/05/02 06:58:58;;;;;;;2.20;1.45;;;;;;;18.06;55.85;101913.97;4931215;29;20181;-68
2021/05/02 07:01:23;;;;;;;2.22;1.70;;;;;;;18.05;55.83;101915.78;4900229;29;20452;-67
2021/05/02 07:03:51;;;;;;;2.17;1.63;;;;;;;18.06;55.82;101919.28;4931436;29;20043;-67
2021/05/02 07:06:16;;;;;;;3.17;1.73;;;;;;;18.06;56.00;101917.44;4931071;29;20047;-67
2021/05/02 07:08:41;;;;;;;2.60;1.48;;;;;;;18.06;55.89;101919.28;4931463;29;20059;-68
2021/05/02 07:11:08;;;;;;;2.33;1.60;;;;;;;18.05;55.88;101917.59;4931549;29;20542;-67
2021/05/02 07:13:33;;;;;;;2.30;1.50;;;;;;;18.05;55.49;101917.59;4914478;29;20047;-67
2021/05/02 07:15:59;;;;;;;2.80;1.60;;;;;;;18.05;55.95;101923.75;4930610;29;20039;-68
2021/05/02 07:18:30;;;;;;;3.92;1.70;;;;;;;18.05;55.57;101913.13;4930897;29;20427;-66
2021/05/02 07:20:56;;;;;;;2.85;1.60;;;;;;;18.07;55.33;101913.81;4930371;29;21141;-69
2021/05/02 07:23:21;;;;;;;4.65;1.67;;;;;;;18.09;55.72;101916.28;4928904;29;20063;-66
2021/05/02 07:25:47;;;;;;;12.73;1.77;;;;;;;18.11;55.46;101914.31;4932112;29;20482;-67
2021/05/02 07:28:12;;;;;;;7.15;1.85;;;;;;;18.13;55.55;101920.28;4928937;29;20040;-72
2021/05/02 07:30:38;;;;;;;7.68;2.10;;;;;;;18.14;55.60;101920.13;4930973;29;20044;-68
2021/05/02 07:33:03;;;;;;;4.68;1.60;;;;;;;18.16;56.25;101926.13;4931071;29;20102;-69
2021/05/02 07:35:30;;;;;;;12.77;2.53;;;;;;;18.19;56.13;101923.16;4930600;29;20032;-72
2021/05/02 07:37:56;;;;;;;10.60;1.95;;;;;;;18.21;56.38;101915.84;4924352;29;20042;-68
2021/05/02 07:40:22;;;;;;;7.90;2.08;;;;;;;18.24;56.57;101926.16;4932191;29;20023;-67
2021/05/02 07:42:47;;;;;;;6.65;2.10;;;;;;;18.24;56.94;101918.19;4931700;29;20054;-68
2021/05/02 07:45:13;;;;;;;8.38;2.05;;;;;;;18.26;57.53;101912.69;4936408;29;20036;-67
2021/05/02 07:47:40;;;;;;;5.40;2.00;;;;;;;18.27;57.41;101911.72;4929808;29;20078;-67
2021/05/02 07:50:07;;;;;;;10.75;2.10;;;;;;;18.27;57.70;101914.34;4921722;29;20083;-67
2021/05/02 07:52:33;;;;;;;10.75;2.00;;;;;;;18.28;57.82;101905.41;4927098;29;20112;-66
2021/05/02 07:54:58;;;;;;;16.08;2.72;;;;;;;18.30;57.56;101902.56;4927530;29;20136;-66
2021/05/02 07:57:23;;;;;;;16.70;2.72;;;;;;;18.31;57.88;101910.41;4907985;29;20135;-66
2021/05/02 07:59:49;;;;;;;10.00;2.33;;;;;;;18.33;57.52;101910.25;4922932;29;20462;-65
2021/05/02 08:02:15;;;;;;;11.70;2.42;;;;;;;18.34;57.54;101907.44;4910497;29;20028;-66
2021/05/02 08:04:41;;;;;;;6.30;2.53;;;;;;;18.35;57.54;101914.41;4928006;29;20027;-65
2021/05/02 08:07:08;;;;;;;7.25;2.65;;;;;;;18.35;57.28;101902.94;4927461;29;20106;-66
2021/05/02 08:09:34;;;;;;;7.60;2.92;;;;;;;18.35;57.21;101909.09;4927911;29;20047;-66
2021/05/02 08:12:01;;;;;;;3.83;2.20;;;;;;;18.37;56.68;101906.28;4923445;29;20063;-66
2021/05/02 08:14:27;;;;;;;7.35;2.85;;;;;;;18.38;56.82;101905.28;4927063;29;20698;-68
2021/05/02 08:16:53;;;;;;;5.50;2.15;;;;;;;18.37;56.46;101912.41;4926052;29;20050;-70
2021/05/02 08:19:18;;;;;;;11.70;3.13;;;;;;;18.38;56.12;101914.06;4908076;29;20036;-67
2021/05/02 08:21:43;;;;;;;6.63;2.47;;;;;;;18.39;55.99;101910.41;4927028;29;20044;-68
2021/05/02 08:24:11;;;;;;;6.35;2.58;;;;;;;18.39;55.78;101907.75;4926284;29;20499;-68
2021/05/02 08:26:37;;;;;;;8.48;2.28;;;;;;;18.39;55.32;101898.97;4907161;29;20482;-69
2021/05/02 08:29:03;;;;;;;8.15;2.65;;;;;;;18.39;55.70;101899.78;4908955;29;20046;-69
2021/05/02 08:31:29;;;;;;;5.05;2.58;;;;;;;18.39;55.70;101899.78;4923897;29;20912;-67
2021/05/02 08:33:54;;;;;;;6.10;2.67;;;;;;;18.39;55.47;101898.97;4926074;29;20086;-70
2021/05/02 08:36:20;;;;;;;8.18;3.40;;;;;;;18.39;55.30;101904.28;4926052;29;20459;-67
2021/05/02 08:38:45;;;;;;;6.70;3.10;;;;;;;18.40;55.11;101903.28;4930896;29;20224;-67
2021/05/02 08:41:11;;;;;;;7.55;2.53;;;;;;;18.40;55.38;101905.94;4926466;29;20118;-67
2021/05/02 08:43:37;;;;;;;6.03;2.65;;;;;;;18.40;55.54;101904.13;4923969;29;20063;-69
2021/05/02 08:46:03;;;;;;;5.45;2.30;;;;;;;18.40;55.10;101901.44;4925663;29;20047;-69
2021/05/02 08:48:29;;;;;;;5.55;2.58;;;;;;;18.42;55.24;101898.63;4927438;29;20527;-68
2021/05/02 08:50:57;;;;;;;8.77;2.53;;;;;;;18.42;55.10;101898.63;4894272;29;20046;-69
2021/05/02 08:53:22;;;;;;;7.25;2.30;;;;;;;18.41;55.49;101903.13;4927296;29;20040;-69
2021/05/02 08:55:48;;;;;;;7.55;2.50;;;;;;;18.43;55.64;101910.91;4927339;29;20059;-71
2021/05/02 08:58:19;;;;;;;4.30;2.10;;;;;;;18.43;55.34;101914.41;4909241;29;20047;-70
2021/05/02 09:00:45;;;;;;;3.72;1.92;;;;;;;18.44;55.48;101910.75;4927129;29;20051;-72
2021/05/02 09:03:10;;;;;;;8.75;2.88;;;;;;;18.46;55.70;101916.75;4909782;29;20024;-70
2021/05/02 09:05:50;;;;;;;8.27;2.88;;;;;;;18.44;55.65;101915.25;4928811;29;20043;-71
2021/05/02 09:08:41;;;;;;;8.52;3.00;;;;;;;18.43;55.70;101910.91;4926575;29;20024;-70
2021/05/02 09:11:07;;;;;;;11.30;3.85;;;;;;;18.49;55.60;101910.28;4920680;29;20059;-68
2021/05/02 09:13:33;;;;;;;11.48;3.67;;;;;;;18.49;55.31;101916.44;4924330;29;20103;-70
2021/05/02 09:16:04;;;;;;;14.95;4.05;;;;;;;18.50;56.01;101910.13;4926308;29;20491;-69
2021/05/02 09:18:38;;;;;;;14.50;3.92;;;;;;;18.52;56.33;101910.78;4927313;29;20040;-69
2021/05/02 09:21:06;;;;;;;11.13;4.00;;;;;;;18.55;56.90;101915.78;4925681;29;20562;-68
2021/05/02 09:23:35;;;;;;;18.58;4.35;;;;;;;18.54;56.58;101907.97;4921699;29;20059;-70
2021/05/02 09:26:04;;;;;;;11.55;3.72;;;;;;;18.58;56.86;101913.78;4922087;29;20048;-70
2021/05/02 09:28:52;;;;;;;14.45;3.78;;;;;;;18.54;56.25;101923.91;4925985;29;20051;-71
2021/05/02 09:31:28;;;;;;;11.45;3.70;;;;;;;18.54;56.19;101911.44;4923084;29;20118;-69
2021/05/02 09:33:54;;;;;;;11.57;3.30;;;;;;;18.58;56.05;101908.47;4925472;29;20506;-68
2021/05/02 09:36:21;;;;;;;10.50;3.80;;;;;;;18.56;55.86;101914.78;4906126;29;20040;-70
2021/05/02 09:38:48;;;;;;;8.25;3.17;;;;;;;18.56;55.01;101913.94;4925331;29;20047;-69
2021/05/02 09:41:16;;;;;;;8.45;3.20;;;;;;;18.54;54.99;101911.44;4931362;29;20483;-73
2021/05/02 09:43:48;;;;;;;9.02;3.45;;;;;;;18.54;54.73;101911.44;4932529;29;20511;-69
2021/05/02 09:49:13;;;;;;;10.38;3.40;;;;;;;18.52;54.12;101908.13;4926886;29;20043;-69
2021/05/02 09:51:47;;;;;;;11.48;3.10;;;;;;;18.51;54.04;101910.97;4924348;29;20032;-69
2021/05/02 09:54:21;;;;;;;8.40;2.92;;;;;;;18.48;53.72;101906.81;4931996;29;20059;-69
2021/05/02 09:56:50;;;;;;;9.88;3.10;;;;;;;18.49;53.76;101911.13;4929230;29;20055;-69
2021/05/02 09:59:34;;;;;;;9.93;3.17;;;;;;;18.45;53.29;101907.09;4931581;29;20036;-69
2021/05/02 10:02:18;;;;;;;7.43;2.60;;;;;;;18.43;53.18;101903.78;4931109;29;20035;-69
2021/05/02 10:04:49;;;;;;;5.85;2.95;;;;;;;18.45;53.27;101907.09;4932919;29;20042;-67
2021/05/02 10:07:17;;;;;;;8.82;2.75;;;;;;;18.46;53.00;101906.13;4933278;29;20042;-67
2021/05/02 10:09:44;;;;;;;8.13;2.92;;;;;;;18.44;53.32;101910.75;4928370;29;20043;-67
2021/05/02 10:12:10;;;;;;;8.30;2.53;;;;;;;18.43;53.01;101911.75;4931847;29;20042;-67
2021/05/02 10:14:37;;;;;;;4.75;2.55;;;;;;;18.43;53.24;101902.94;4924077;29;20502;-67
2021/05/02 10:17:04;;;;;;;7.07;3.20;;;;;;;18.41;53.27;101902.28;4931153;29;20119;-69
2021/05/02 10:19:33;;;;;;;9.23;2.75;;;;;;;18.41;53.12;101902.28;4933590;29;20032;-67
2021/05/02 10:21:59;;;;;;;6.45;2.47;;;;;;;18.40;53.05;101898.78;4930029;23;20064;-65
2021/05/02 10:24:25;;;;;;;7.88;3.10;;;;;;;18.39;53.23;101905.09;4916182;29;20047;-64
2021/05/02 10:26:52;;;;;;;8.38;2.92;;;;;;;18.38;52.77;101895.47;4932749;29;20040;-64
2021/05/02 10:29:24;;;;;;;10.02;3.17;;;;;;;18.36;52.50;101889.50;4932602;29;20158;-64
2021/05/02 10:31:57;;;;;;;8.98;2.95;;;;;;;18.38;52.24;101897.31;4932597;29;20031;-66
2021/05/02 10:34:28;;;;;;;9.88;3.30;;;;;;;18.35;51.61;101895.81;4933418;29;20168;-64
2021/05/02 10:37:22;;;;;;;6.97;2.75;;;;;;;18.31;51.51;101898.97;4931674;29;20102;-65
2021/05/02 10:39:58;;;;;;;9.35;3.30;;;;;;;18.31;51.59;101897.13;4932748;29;20042;-64
2021/05/02 10:42:43;;;;;;;9.77;3.13;;;;;;;18.30;51.57;101899.91;4932211;29;20043;-64
2021/05/02 10:45:30;;;;;;;7.25;2.42;;;;;;;18.28;51.49;101902.75;4930005;29;20185;-64
2021/05/02 10:48:00;;;;;;;5.97;2.50;;;;;;;18.29;51.53;101899.09;4929716;29;20046;-64
2021/05/02 10:50:33;;;;;;;5.82;2.80;;;;;;;18.30;51.37;101899.91;4932772;29;20067;-65
2021/05/02 10:53:11;;;;;;;7.07;2.70;;;;;;;18.28;51.11;101902.75;4923148;29;20039;-64
2021/05/02 10:55:56;;;;;;;7.35;2.33;;;;;;;18.23;50.60;101897.09;4932727;29;20388;-65
2021/05/02 10:58:35;;;;;;;7.63;2.40;;;;;;;18.23;50.67;101905.06;4931203;29;20550;-65
2021/05/02 11:01:08;;;;;;;8.18;2.20;;;;;;;18.21;50.38;101907.06;4931825;29;20039;-64
2021/05/02 11:03:39;;;;;;;7.28;2.63;;;;;;;18.19;50.09;101912.53;4931446;29;20028;-64
2021/05/02 11:06:12;;;;;;;4.97;2.00;;;;;;;18.19;50.19;101904.56;4929063;29;20119;-64
2021/05/02 11:08:47;;;;;;;4.15;2.00;;;;;;;18.18;49.91;101904.72;4930911;29;20031;-65
2021/05/02 11:11:35;;;;;;;;;;;;;;;18.11;49.88;101898.38;4922719;29;20036;-65
2021/05/02 11:14:07;;;;;;;4.55;1.80;;;;;;;18.16;49.72;101896.09;4924631;29;20017;-65
2021/05/02 11:16:42;;;;;;;5.10;1.80;;;;;;;18.17;49.32;101889.78;4930880;29;20067;-65
2021/05/02 11:19:12;;;;;;;5.15;1.90;;;;;;;18.17;48.78;101895.09;4907849;29;20040;-65
2021/05/02 11:21:55;;;;;;;5.13;2.13;;;;;;;18.14;48.47;101896.22;4929773;29;20138;-64
2021/05/02 11:24:25;;;;;;;5.15;1.77;;;;;;;18.15;48.49;101892.59;4932019;29;20035;-64
2021/05/02 11:29:46;;;;;;;27.10;24.58;;;;;;;18.18;48.29;101886.13;4932608;29;20111;-65
2021/05/02 11:32:12;;;;;;;188.70;172.57;;;;;;;18.18;47.83;101883.47;4920018;29;20027;-65
2021/05/02 11:34:50;;;;;;;183.52;167.80;;;;;;;18.16;47.47;101880.97;4898515;29;20048;-64
2021/05/02 11:37:36;;;;;;;170.10;155.30;;;;;;;18.18;47.22;101886.97;4931968;29;20079;-64